Flood From: 22-02-2018 16:00 Until: 23-02-2018 16:00 warning for: Flood Level: Yellow info button

Although rather usual in this region, locally or potentially dangerous phenomena are expected. (such as local winds, summer thunderstorms, rising streams or high waves) Be aware and pay attention to the latest weather updates, especially if you carry out activities exposed to weather or close to a stream or shoreline. 


Meteo18 Weather Cam more information Meteo18 Weather Cam


Thunder radar more information blitzortung!


Rain radar more information rain snow radar


Visit our other weather sites:

Template documentation
and downloads

And another site



Weather Underground History page Text

Daily Summary for January 5, 2016 Units:  Metric    English   Both
« Previous Day
Next Day »
Daily Weekly Monthly Yearly Custom
  High: Low: Average:
Temperature: -17.8 °C -15.2 °C -14.3 °C
Dew Point: -17.8 °C -15.6 °C -15.1 °C
Humidity: Humidity % 82 % 91 %
Wind Speed: 0 km/h 0 km/h 7.4 km/h
Wind Gust: 0 km/h - -
Wind:- - SW
Pressure: 0 hPa 33639.9 hPa -
Precipitation: 33.02 mm    
Historical Graphs
 
 
Tabular Data for January 5, 2016
Time Temperature Dew Point Pressure Wind Wind Speed Wind Gust Humidity Rainfall Rate (Hourly)
-17.8 °C -17.8 °C 0 hPa Calm     Humidity % 0 mm
00:02 -14.6 °C -14.9 °C 33650.1 hPa SW 5.1 km/h 15.6 km/h 96 % 7.62 mm
00:07 -14.6 °C -14.9 °C 33650.1 hPa SW 5.1 km/h 15.6 km/h 96 % 7.62 mm
00:17 -14.6 °C -14.9 °C 33650.1 hPa WSW 2.6 km/h 18.2 km/h 96 % 7.62 mm
00:22 -14.6 °C -14.9 °C 33650.1 hPa SW 10.3 km/h 18.2 km/h 96 % 7.62 mm
00:32 -14.6 °C -14.9 °C 33650.1 hPa SW 5.1 km/h 18.2 km/h 96 % 7.62 mm
00:37 -14.7 °C -15 °C 33650.1 hPa West 10.3 km/h 18.2 km/h 96 % 7.62 mm
00:42 -14.7 °C -15 °C 33650.1 hPa SW 10.3 km/h 18.2 km/h 96 % 7.62 mm
00:47 -14.7 °C -15 °C 33639.9 hPa WSW 2.6 km/h 15.6 km/h 96 % 7.62 mm
00:57 -14.9 °C -15.2 °C 33650.1 hPa WSW 2.6 km/h 12.9 km/h 96 % 7.62 mm
01:07 -15.1 °C -15.4 °C 33650.1 hPa Calm   12.9 km/h 96 % 7.62 mm
01:12 -15.1 °C -15.4 °C 33650.1 hPa SW 2.6 km/h 12.9 km/h 96 % 7.62 mm
01:22 -15.1 °C -15.3 °C 33650.1 hPa WSW 2.6 km/h 10.3 km/h 97 % 7.62 mm
01:27 -15.1 °C -15.3 °C 33650.1 hPa SW 2.6 km/h 7.7 km/h 97 % 7.62 mm
01:32 -15.1 °C -15.3 °C 33650.1 hPa SW 5.1 km/h 7.7 km/h 97 % 7.62 mm
01:42 -15.1 °C -15.3 °C 33650.1 hPa WSW 2.6 km/h 5.1 km/h 97 % 7.62 mm
02:02 -15.1 °C -15.3 °C 33639.9 hPa Calm   5.1 km/h 97 % 0 mm
02:07 -15.2 °C -15.4 °C 33639.9 hPa Calm   5.1 km/h 97 % 0 mm
02:14 -15.2 °C -15.4 °C 33639.9 hPa Calm   5.1 km/h 97 % 0 mm
02:22 -15.2 °C -15.4 °C 33639.9 hPa Calm   2.6 km/h 97 % 0 mm
02:29 -15.2 °C -15.4 °C 33639.9 hPa Calm     97 % 0 mm
02:37 -15.2 °C -15.4 °C 33650.1 hPa SW 2.6 km/h 7.7 km/h 97 % 0 mm
02:47 -15.2 °C -15.4 °C 33650.1 hPa SW 2.6 km/h 7.7 km/h 97 % 0 mm
02:52 -15.1 °C -15.3 °C 33650.1 hPa WSW 2.6 km/h 7.7 km/h 98 % 0 mm
03:02 -15.1 °C -15.3 °C 33650.1 hPa WSW 2.6 km/h 7.7 km/h 97 % 0 mm
03:07 -15.1 °C -15.3 °C 33650.1 hPa Calm   7.7 km/h 97 % 0 mm
03:12 -15.2 °C -15.4 °C 33660.2 hPa Calm   7.7 km/h 97 % 0 mm
03:22 -15.1 °C -15.3 °C 33660.2 hPa SSE 2.6 km/h 5.1 km/h 97 % 0 mm
03:27 -15 °C -15.2 °C 33660.2 hPa WSW 2.6 km/h 7.7 km/h 97 % 0 mm
03:32 -14.9 °C -15.2 °C 33660.2 hPa Calm   10.3 km/h 97 % 0 mm
03:42 -14.9 °C -15.2 °C 33660.2 hPa Calm   10.3 km/h 97 % 0 mm
03:47 -14.9 °C -15.2 °C 33660.2 hPa SW 5.1 km/h 10.3 km/h 97 % 0 mm
03:57 -14.8 °C -15.2 °C 33650.1 hPa SW 5.1 km/h 15.6 km/h 96 % 0 mm
04:07 -14.8 °C -15.2 °C 33650.1 hPa SSW 5.1 km/h 12.9 km/h 95 % 0 mm
04:17 -14.8 °C -15.2 °C 33650.1 hPa WSW 2.6 km/h 12.9 km/h 95 % 0 mm
04:22 -14.8 °C -15.2 °C 33650.1 hPa WSW 2.6 km/h 12.9 km/h 95 % 0 mm
04:32 -14.8 °C -15.2 °C 33660.2 hPa SW 5.1 km/h 15.6 km/h 95 % 0 mm
04:37 -14.8 °C -15.2 °C 33650.1 hPa WSW 5.1 km/h 15.6 km/h 95 % 0 mm
04:47 -14.9 °C -15.4 °C 33650.1 hPa Calm   18.2 km/h 94 % 0 mm
05:03 -14.9 °C -15.3 °C 33650.1 hPa Calm   15.6 km/h 95 % 0 mm
05:12 -14.8 °C -15.2 °C 33660.2 hPa SW 5.1 km/h 12.9 km/h 95 % 0 mm
05:17 -14.8 °C -15.3 °C 33650.1 hPa SW 10.3 km/h 12.9 km/h 94 % 0 mm
05:27 -15.1 °C -15.6 °C 33650.1 hPa SSW 7.7 km/h 15.6 km/h 94 % 0 mm
05:37 -15.1 °C -15.4 °C 33650.1 hPa SSW 5.1 km/h 12.9 km/h 95 % 0 mm
05:42 -15.1 °C -15.5 °C 33650.1 hPa Calm   12.9 km/h 95 % 0 mm
05:47 -15.1 °C -15.5 °C 33650.1 hPa WSW 7.7 km/h 12.9 km/h 95 % 0 mm
05:57 -15.2 °C -15.6 °C 33650.1 hPa Calm   15.6 km/h 95 % 0 mm
06:07 -15.1 °C -15.5 °C 33660.2 hPa Calm   15.6 km/h 95 % 0 mm
06:12 -15.1 °C -15.4 °C 33660.2 hPa SSE 2.6 km/h 15.6 km/h 95 % 0 mm
06:22 -14.9 °C -15.3 °C 33660.2 hPa WSW 7.7 km/h 18.2 km/h 95 % 0 mm
06:32 -14.8 °C -15.2 °C 33660.2 hPa SSW 10.3 km/h 18.2 km/h 95 % 0 mm
06:37 -14.8 °C -15.3 °C 33660.2 hPa SW 7.7 km/h 18.2 km/h 94 % 0 mm
06:47 -14.8 °C -15.3 °C 33660.2 hPa SW 5.1 km/h 18.2 km/h 94 % 0 mm
06:57 -14.8 °C -15.3 °C 33660.2 hPa WSW 7.7 km/h 18.2 km/h 94 % 0 mm
07:02 -14.8 °C -15.3 °C 33660.2 hPa WSW 10.3 km/h 15.6 km/h 94 % 0 mm
07:07 -14.8 °C -15.3 °C 33660.2 hPa SW 10.3 km/h 15.6 km/h 94 % 0 mm
07:17 -14.8 °C -15.3 °C 33673.8 hPa SW 2.6 km/h 12.9 km/h 94 % 0 mm
07:27 -14.8 °C -15.3 °C 33660.2 hPa SW 5.1 km/h 10.3 km/h 94 % 0 mm
07:37 -14.8 °C -15.3 °C 33673.8 hPa Calm   10.3 km/h 94 % 0 mm
07:47 -14.8 °C -15.2 °C 33660.2 hPa WSW 2.6 km/h 10.3 km/h 95 % 0 mm
07:57 -14.9 °C -15.3 °C 33660.2 hPa WSW 10.3 km/h 12.9 km/h 95 % 7.62 mm
08:02 -14.9 °C -15.3 °C 33660.2 hPa WSW 2.6 km/h 12.9 km/h 95 % 7.62 mm
08:12 -14.9 °C -15.3 °C 33673.8 hPa SW 2.6 km/h 15.6 km/h 95 % 7.62 mm
08:17 -14.9 °C -15.3 °C 33673.8 hPa WSW 2.6 km/h 15.6 km/h 95 % 7.62 mm
08:22 -14.9 °C -15.3 °C 33673.8 hPa SW 10.3 km/h 15.6 km/h 95 % 7.62 mm
08:32 -14.9 °C -15.3 °C 33673.8 hPa WSW 2.6 km/h 12.9 km/h 95 % 7.62 mm
08:37 -14.9 °C -15.3 °C 33673.8 hPa SSE 2.6 km/h 10.3 km/h 95 % 7.62 mm
08:42 -14.8 °C -15.2 °C 33673.8 hPa SW 7.7 km/h 15.6 km/h 95 % 7.62 mm
08:52 -14.8 °C -15.3 °C 33673.8 hPa SW 10.3 km/h 23.3 km/h 94 % 7.62 mm
08:57 -14.7 °C -15.2 °C 33683.9 hPa SW 10.3 km/h 23.3 km/h 94 % 0 mm
09:02 -14.7 °C -15.3 °C 33683.9 hPa SW 10.3 km/h 23.3 km/h 93 % 0 mm
09:07 -14.7 °C -15.3 °C 33683.9 hPa WSW 10.3 km/h 23.3 km/h 93 % 0 mm
09:17 -14.7 °C -15.2 °C 33694.1 hPa SW 7.7 km/h 23.3 km/h 93 % 7.62 mm
09:24 -14.6 °C -15.2 °C 33683.9 hPa SW 5.1 km/h 20.8 km/h 93 % 7.62 mm
09:32 -14.6 °C -15.2 °C 33694.1 hPa SW 7.7 km/h 20.8 km/h 93 % 7.62 mm
09:44 -14.6 °C -15.2 °C 33694.1 hPa WSW 10.3 km/h 23.3 km/h 93 % 12.7 mm
09:52 -14.6 °C -15.1 °C 33694.1 hPa SW 10.3 km/h 23.3 km/h 93 % 12.7 mm
09:59 -14.6 °C -15.1 °C 33694.1 hPa SW 12.9 km/h 23.3 km/h 93 % 12.7 mm
10:09 -14.4 °C -15 °C 33707.6 hPa Calm   28.5 km/h 93 % 12.7 mm
10:17 -14.3 °C -15 °C 33707.6 hPa SW 5.1 km/h 23.3 km/h 92 % 7.62 mm
10:22 -14.3 °C -15 °C 33707.6 hPa SW 10.3 km/h 23.3 km/h 92 % 7.62 mm
10:32 -14.3 °C -15 °C 33707.6 hPa WSW 12.9 km/h 25.9 km/h 92 % 7.62 mm
10:37 -14.3 °C -15 °C 33707.6 hPa SW 7.7 km/h 25.9 km/h 92 % 7.62 mm
10:42 -14.3 °C -14.9 °C 33707.6 hPa SW 15.6 km/h 31.1 km/h 92 % 0 mm
10:47 -14.3 °C -14.9 °C 33707.6 hPa SW 10.3 km/h 31.1 km/h 92 % 0 mm
10:57 -14.2 °C -14.9 °C 33717.8 hPa WSW 7.7 km/h 25.9 km/h 91 % 0 mm
11:02 -14.2 °C -15 °C 33717.8 hPa SW 15.6 km/h 25.9 km/h 91 % 0 mm
11:07 -14.2 °C -14.9 °C 33717.8 hPa SSW 2.6 km/h 33.6 km/h 92 % 0 mm
11:12 -14.2 °C -14.9 °C 33717.8 hPa SSE 5.1 km/h 33.6 km/h 92 % 0 mm
11:17 -14.2 °C -14.9 °C 33717.8 hPa SSW 18.2 km/h 33.6 km/h 92 % 0 mm
11:29 -14.1 °C -14.8 °C 33717.8 hPa WSW 10.3 km/h 23.3 km/h 91 % 0 mm
11:34 -14 °C -14.8 °C 33717.8 hPa South 7.7 km/h 23.3 km/h 91 % 0 mm
11:42 -13.9 °C -14.7 °C 33717.8 hPa WSW 10.3 km/h 28.5 km/h 91 % 0 mm
11:52 -13.8 °C -14.6 °C 33707.6 hPa WSW 2.6 km/h 28.5 km/h 90 % 0 mm
12:02 -13.7 °C -14.6 °C 33707.6 hPa SW 10.3 km/h 25.9 km/h 89 % 0 mm
12:12 -13.6 °C -14.6 °C 33707.6 hPa WSW 7.7 km/h 28.5 km/h 88 % 0 mm
12:22 -13.6 °C -14.7 °C 33707.6 hPa SW 10.3 km/h 31.1 km/h 87 % 0 mm
12:27 -13.6 °C -14.6 °C 33707.6 hPa SW 12.9 km/h 31.1 km/h 89 % 0 mm
12:37 -13.7 °C -14.6 °C 33707.6 hPa SW 12.9 km/h 25.9 km/h 89 % 0 mm
12:47 -13.7 °C -14.7 °C 33707.6 hPa SW 5.1 km/h 23.3 km/h 88 % 7.62 mm
12:52 -13.6 °C -14.7 °C 33707.6 hPa SW 5.1 km/h 25.9 km/h 88 % 7.62 mm
12:57 -13.5 °C -14.4 °C 33707.6 hPa SW 10.3 km/h 25.9 km/h 89 % 7.62 mm
13:02 -13.5 °C -14.6 °C 33707.6 hPa SSW 7.7 km/h 23.3 km/h 87 % 7.62 mm
13:07 -13.4 °C -14.6 °C 33707.6 hPa WSW 18.2 km/h 25.9 km/h 87 % 7.62 mm
13:17 -13.5 °C -14.7 °C 33707.6 hPa SW 12.9 km/h 28.5 km/h 86 % 7.62 mm
13:27 -13.5 °C -14.8 °C 33707.6 hPa WSW 10.3 km/h 25.9 km/h 85 % 7.62 mm
13:32 -13.5 °C -14.7 °C 33694.1 hPa West 7.7 km/h 23.3 km/h 86 % 7.62 mm
13:37 -13.4 °C -14.6 °C 33694.1 hPa SW 2.6 km/h 23.3 km/h 87 % 7.62 mm
13:42 -13.4 °C -14.6 °C 33694.1 hPa WSW 7.7 km/h 23.3 km/h 86 % 7.62 mm
13:47 -13.3 °C -14.5 °C 33694.1 hPa SW 12.9 km/h 23.3 km/h 86 % 0 mm
13:52 -13.3 °C -14.6 °C 33694.1 hPa SW 12.9 km/h 23.3 km/h 85 % 0 mm
13:57 -13.2 °C -14.4 °C 33694.1 hPa SW 7.7 km/h 23.3 km/h 86 % 0 mm
14:07 -13.3 °C -14.5 °C 33694.1 hPa SSW 5.1 km/h 23.3 km/h 86 % 0 mm
14:17 -13.3 °C -14.5 °C 33694.1 hPa SW 23.3 km/h 23.3 km/h 86 % 0 mm
14:22 -13.2 °C -14.6 °C 33683.9 hPa WSW 5.1 km/h 23.3 km/h 85 % 0 mm
14:27 -13.1 °C -14.4 °C 33683.9 hPa SW 15.6 km/h 23.3 km/h 85 % 0 mm
14:32 -13.1 °C -14.5 °C 33683.9 hPa WSW 10.3 km/h 23.3 km/h 84 % 0 mm
14:37 -13.1 °C -14.6 °C 33683.9 hPa SW 7.7 km/h 20.8 km/h 83 % 0 mm
14:42 -13.1 °C -14.6 °C 33683.9 hPa Calm   20.8 km/h 83 % 0 mm
14:47 -13.1 °C -14.6 °C 33683.9 hPa SW 15.6 km/h 25.9 km/h 83 % 0 mm
14:52 -13.1 °C -14.7 °C 33683.9 hPa WSW 10.3 km/h 33.6 km/h 82 % 0 mm
14:57 -13.2 °C -14.7 °C 33683.9 hPa WSW 5.1 km/h 33.6 km/h 83 % 0 mm
15:02 -13.2 °C -14.7 °C 33683.9 hPa WSW 5.1 km/h 33.6 km/h 83 % 0 mm
15:07 -13.3 °C -14.7 °C 33683.9 hPa SW 15.6 km/h 18.2 km/h 84 % 0 mm
15:22 -13.5 °C -14.7 °C 33683.9 hPa South 5.1 km/h 25.9 km/h 86 % 0 mm
15:27 -13.4 °C -14.6 °C 33683.9 hPa SW 5.1 km/h 25.9 km/h 86 % 0 mm
15:32 -13.4 °C -14.6 °C 33683.9 hPa SW 5.1 km/h 18.2 km/h 86 % 0 mm
15:37 -13.4 °C -14.8 °C 33694.1 hPa SW 5.1 km/h 18.2 km/h 85 % 0 mm
15:42 -13.4 °C -14.8 °C 33694.1 hPa WSW 12.9 km/h 25.9 km/h 85 % 0 mm
15:47 -13.4 °C -14.8 °C 33694.1 hPa SW 5.1 km/h 25.9 km/h 84 % 0 mm
15:52 -13.5 °C -14.9 °C 33694.1 hPa West 10.3 km/h 25.9 km/h 84 % 0 mm
15:57 -13.5 °C -14.9 °C 33694.1 hPa WSW 10.3 km/h 25.9 km/h 84 % 0 mm
16:02 -13.5 °C -14.8 °C 33694.1 hPa SSE 5.1 km/h 25.9 km/h 85 % 0 mm
16:07 -13.6 °C -14.8 °C 33694.1 hPa SW 10.3 km/h 25.9 km/h 86 % 0 mm
16:12 -13.7 °C -14.9 °C 33694.1 hPa SE 12.9 km/h 23.3 km/h 86 % 0 mm
16:17 -13.7 °C -14.9 °C 33694.1 hPa SW 12.9 km/h 33.6 km/h 86 % 0 mm
16:22 -13.8 °C -14.9 °C 33694.1 hPa ESE 18.2 km/h 33.6 km/h 87 % 0 mm
16:27 -13.9 °C -15.1 °C 33694.1 hPa SW 12.9 km/h 25.9 km/h 87 % 0 mm
16:32 -14 °C -15.1 °C 33694.1 hPa WSW 10.3 km/h 23.3 km/h 87 % 0 mm
16:37 -14 °C -15.1 °C 33694.1 hPa WSW 15.6 km/h 23.3 km/h 87 % 0 mm
16:47 -14 °C -15.1 °C 33694.1 hPa SW 7.7 km/h 23.3 km/h 87 % 0 mm
16:52 -14 °C -15 °C 33694.1 hPa WSW 5.1 km/h 20.8 km/h 88 % 0 mm
17:02 -14 °C -14.9 °C 33694.1 hPa SW 10.3 km/h 20.8 km/h 89 % 0 mm
17:07 -14.1 °C -15.1 °C 33694.1 hPa SSW 23.3 km/h 23.3 km/h 88 % 0 mm
17:12 -14 °C -15.1 °C 33694.1 hPa SW 10.3 km/h 23.3 km/h 87 % 0 mm
17:22 -13.9 °C -15.2 °C 33694.1 hPa SW 7.7 km/h 28.5 km/h 86 % 0 mm
17:27 -13.9 °C -15.2 °C 33694.1 hPa West 10.3 km/h 28.5 km/h 86 % 0 mm
17:32 -14 °C -15.2 °C 33694.1 hPa WSW 10.3 km/h 28.5 km/h 86 % 0 mm
17:37 -14.1 °C -15.3 °C 33694.1 hPa SW 15.6 km/h 20.8 km/h 86 % 0 mm
17:42 -14.1 °C -15.3 °C 33707.6 hPa WSW 10.3 km/h 20.8 km/h 86 % 0 mm
17:47 -14.1 °C -15.2 °C 33707.6 hPa WSW 10.3 km/h 20.8 km/h 87 % 0 mm
17:52 -14.1 °C -15.3 °C 33707.6 hPa SW 10.3 km/h 20.8 km/h 86 % 0 mm
17:57 -14.1 °C -15.3 °C 33707.6 hPa WSW 5.1 km/h 25.9 km/h 86 % 0 mm
18:02 -14.2 °C -15.4 °C 33707.6 hPa SW 7.7 km/h 25.9 km/h 86 % 0 mm
18:07 -14.2 °C -15.4 °C 33707.6 hPa WSW 10.3 km/h 25.9 km/h 86 % 0 mm
18:12 -14.2 °C -15.4 °C 33707.6 hPa West 7.7 km/h 23.3 km/h 86 % 0 mm
18:17 -14.2 °C -15.3 °C 33707.6 hPa SW 10.3 km/h 28.5 km/h 87 % 0 mm
18:22 -14.3 °C -15.3 °C 33707.6 hPa WSW 10.3 km/h 28.5 km/h 88 % 0 mm
18:27 -14.3 °C -15.3 °C 33707.6 hPa SW 10.3 km/h 18.2 km/h 88 % 0 mm
18:37 -14.3 °C -15.3 °C 33717.8 hPa SW 10.3 km/h 20.8 km/h 89 % 0 mm
18:42 -14.3 °C -15.3 °C 33707.6 hPa SW 10.3 km/h 20.8 km/h 89 % 0 mm
18:47 -14.4 °C -15.2 °C 33717.8 hPa SW 7.7 km/h 20.8 km/h 90 % 0 mm
18:52 -14.4 °C -15.2 °C 33717.8 hPa SW 10.3 km/h 20.8 km/h 90 % 0 mm
18:57 -14.4 °C -15.2 °C 33717.8 hPa SW 10.3 km/h 18.2 km/h 90 % 0 mm
19:02 -14.4 °C -15.2 °C 33717.8 hPa South 7.7 km/h 20.8 km/h 90 % 0 mm
19:07 -14.3 °C -15.3 °C 33717.8 hPa WSW 2.6 km/h 20.8 km/h 89 % 0 mm
19:12 -14.3 °C -15.2 °C 33717.8 hPa SW 7.7 km/h 20.8 km/h 90 % 0 mm
19:17 -14.3 °C -15.2 °C 33717.8 hPa SW 5.1 km/h 15.6 km/h 90 % 0 mm
19:22 -14.3 °C -15.2 °C 33717.8 hPa WSW 5.1 km/h 20.8 km/h 90 % 0 mm
19:27 -14.3 °C -15.2 °C 33717.8 hPa SW 5.1 km/h 20.8 km/h 90 % 0 mm
19:32 -14.4 °C -15.2 °C 33717.8 hPa SW 10.3 km/h 20.8 km/h 90 % 0 mm
19:37 -14.4 °C -15.2 °C 33717.8 hPa SW 10.3 km/h 23.3 km/h 90 % 0 mm
19:42 -14.3 °C -15.2 °C 33731.3 hPa SW 7.7 km/h 23.3 km/h 90 % 0 mm
19:47 -14.3 °C -15.2 °C 33731.3 hPa SW 7.7 km/h 28.5 km/h 89 % 0 mm
19:52 -14.2 °C -15.2 °C 33717.8 hPa SW 10.3 km/h 31.1 km/h 89 % 0 mm
19:57 -14.3 °C -15.1 °C 33717.8 hPa SW 7.7 km/h 31.1 km/h 90 % 0 mm
20:02 -14.3 °C -15.2 °C 33717.8 hPa SW 7.7 km/h 31.1 km/h 90 % 0 mm
20:07 -14.3 °C -15.2 °C 33717.8 hPa SSW 7.7 km/h 23.3 km/h 89 % 0 mm
20:12 -14.2 °C -15.2 °C 33731.3 hPa WSW 2.6 km/h 23.3 km/h 89 % 0 mm
20:17 -14.2 °C -15.2 °C 33731.3 hPa Calm   23.3 km/h 89 % 0 mm
20:22 -14.3 °C -15.2 °C 33731.3 hPa SE 10.3 km/h 20.8 km/h 90 % 0 mm
20:27 -14.4 °C -15.2 °C 33731.3 hPa SW 12.9 km/h 20.8 km/h 90 % 0 mm
20:32 -14.4 °C -15.2 °C 33731.3 hPa WSW 10.3 km/h 15.6 km/h 91 % 0 mm
20:37 -14.4 °C -15.2 °C 33731.3 hPa SW 7.7 km/h 15.6 km/h 91 % 0 mm
20:42 -14.4 °C -15.2 °C 33731.3 hPa SSW 7.7 km/h 12.9 km/h 91 % 0 mm
20:47 -14.4 °C -15.2 °C 33731.3 hPa SW 7.7 km/h 15.6 km/h 91 % 0 mm
20:52 -14.4 °C -15.2 °C 33731.3 hPa SW 7.7 km/h 15.6 km/h 91 % 0 mm
20:57 -14.4 °C -15.2 °C 33731.3 hPa SW 10.3 km/h 18.2 km/h 91 % 0 mm
21:07 -14.5 °C -15.2 °C 33731.3 hPa WSW 7.7 km/h 18.2 km/h 92 % 0 mm
21:12 -14.5 °C -15.2 °C 33731.3 hPa WSW 7.7 km/h 15.6 km/h 92 % 7.62 mm
21:17 -14.5 °C -15.2 °C 33731.3 hPa ESE 2.6 km/h 18.2 km/h 92 % 7.62 mm
21:22 -14.6 °C -15.2 °C 33741.5 hPa SW 5.1 km/h 18.2 km/h 92 % 7.62 mm
21:27 -14.6 °C -15.1 °C 33741.5 hPa WSW 5.1 km/h 18.2 km/h 93 % 7.62 mm
21:32 -14.5 °C -15.2 °C 33741.5 hPa SW 5.1 km/h 15.6 km/h 92 % 7.62 mm
21:37 -14.6 °C -15.2 °C 33741.5 hPa South 5.1 km/h 15.6 km/h 92 % 7.62 mm
21:49 -14.6 °C -15.1 °C 33741.5 hPa SW 10.3 km/h 12.9 km/h 93 % 7.62 mm
21:57 -14.6 °C -15.2 °C 33741.5 hPa SW 5.1 km/h 12.9 km/h 92 % 7.62 mm
22:02 -14.6 °C -15.2 °C 33741.5 hPa WSW 10.3 km/h 12.9 km/h 92 % 7.62 mm
22:12 -14.6 °C -15.1 °C 33741.5 hPa SW 10.3 km/h 12.9 km/h 93 % 0 mm
22:17 -14.6 °C -15.1 °C 33741.5 hPa Calm   12.9 km/h 93 % 0 mm
22:22 -14.6 °C -15.2 °C 33741.5 hPa SSE 7.7 km/h 12.9 km/h 93 % 0 mm
22:27 -14.6 °C -15.2 °C 33741.5 hPa WSW 2.6 km/h 12.9 km/h 92 % 0 mm
22:32 -14.6 °C -15.2 °C 33741.5 hPa SW 10.3 km/h 18.2 km/h 92 % 0 mm
22:37 -14.5 °C -15.3 °C 33741.5 hPa SW 7.7 km/h 23.3 km/h 91 % 0 mm
22:42 -14.4 °C -15.2 °C 33741.5 hPa WSW 12.9 km/h 23.3 km/h 91 % 0 mm
22:47 -14.4 °C -15.2 °C 33741.5 hPa WSW 5.1 km/h 23.3 km/h 91 % 0 mm
22:52 -14.4 °C -15.2 °C 33741.5 hPa SW 12.9 km/h 20.8 km/h 91 % 0 mm
22:57 -14.4 °C -15.2 °C 33741.5 hPa WSW 15.6 km/h 20.8 km/h 90 % 0 mm
23:02 -14.4 °C -15.2 °C 33741.5 hPa WSW 2.6 km/h 20.8 km/h 90 % 0 mm
23:07 -14.4 °C -15.2 °C 33741.5 hPa SW 10.3 km/h 25.9 km/h 90 % 0 mm
23:12 -14.4 °C -15.2 °C 33741.5 hPa SW 10.3 km/h 25.9 km/h 90 % 0 mm
23:17 -14.4 °C -15.2 °C 33741.5 hPa WSW 10.3 km/h 25.9 km/h 90 % 0 mm
23:22 -14.4 °C -15.2 °C 33741.5 hPa Calm   23.3 km/h 90 % 0 mm
23:27 -14.4 °C -15.2 °C 33751.6 hPa SW 10.3 km/h 20.8 km/h 91 % 0 mm
23:32 -14.4 °C -15.2 °C 33751.6 hPa WSW 12.9 km/h 23.3 km/h 90 % 0 mm
23:42 -14.4 °C -15.2 °C 33751.6 hPa SW 2.6 km/h 23.3 km/h 91 % 0 mm
23:47 -14.4 °C -15.2 °C 33751.6 hPa SSE 7.7 km/h 23.3 km/h 91 % 0 mm
23:52 -14.4 °C -15.2 °C 33751.6 hPa WSW 2.6 km/h 23.3 km/h 91 % 0 mm
23:57 -14.4 °C -15.2 °C 33751.6 hPa SSW 12.9 km/h 23.3 km/h 91 % 0 mm
Meteo18
Compliments of Weather Underground - 4 mb

Script developed by  Jim McMurry - jmcmurry@mwt.net Adapted for the template by  Wim van der Kuil - Leuven-Template.eu

You find our weather info also at:

European Weather Network

Weather Underground

Equipment we use:

Weather-station
Davis Vue

Weather-program
Meteobridge

Weather-server
Raspberry PI 2 B+

Provider
1 and 1

Davis Vue

Meteobridge

Raspberry PI 2 B+

1 and 1